Penticton, British Columbia

11:38 AM PST on January 16, 2017 (GMT -0800)
Penticton | | Change Station

Elev 1129 ft 49.47 °N, 119.60 °W | Updated 38 minutes ago

Mostly Cloudy
Mostly Cloudy
23 °F
Feels Like 8 °F
N
20
Wind Variable Wind from South
Gusts 28 mph

Today
High -- | Low -- °F
--% Chance of Precip.
Yesterday
High -- | Low -- °F
Precip. -- in
Pressure 30.44 in
Visibility 15.0 miles
Clouds Few 2000 ft
Few 5000 ft
Scattered Clouds 10000 ft
Mostly Cloudy 22000 ft
Windchill 8 °F
Dew Point 16 °F
Humidity 74%
Rainfall 0.00 in
Snow Depth Not available.
7:47 AM 4:29 PM
Waning Gibbous, 79% visible
METAR CYYF 161900Z 18017G24KT 15SM FEW020 FEW050 SCT100 BKN220 M05/M09 A3037 RMK SC1SC1AC2CI2 SLP307
Pressure 30.44 in
Visibility 15.0 miles
Clouds Few 2000 ft
Few 5000 ft
Scattered Clouds 10000 ft
Mostly Cloudy 22000 ft
Windchill 8 °F
Dew Point 16 °F
Humidity 74%
Rainfall 0.00 in
Snow Depth Not available.
7:47 AM 4:29 PM
Waning Gibbous, 79% visible
METAR CYYF 161900Z 18017G24KT 15SM FEW020 FEW050 SCT100 BKN220 M05/M09 A3037 RMK SC1SC1AC2CI2 SLP307

Get Your Daily Forecast Email!

Thanks for signing up!

Be on the lookout for a verification email in your inbox.

You'll start receiving the daily forecast at 8 AM.

×

10-Day Weather Forecast

Almanac

Astronomy

Jan. 16, 2017 Rise Set
Actual Time
Civil Twilight
Nautical Twilight
Astronomical Twilight
Moon
Length of Visible Light
Length of Day
Tomorrow will be .
, % of the Moon is Illuminated

Today's Extremes

Country Highs Country Lows

Community

WunderPhotos

Upload Photos

1,962,540 photos uploaded!

WunderBlog® & News

Nearby

Air Quality

  Air Quality AQ Index Pollutant
Not available.

Snow Depth

Station Depth Elevation

Earthquake Activity

City Distance Mag. Time & Date
Minimum magnitude displayed is 2.5.

Coastal Water Temperatures

Place Temperature

Stations

Nearby Weather Stations

Station Location Temp. Windchill Dew Point Humidity Wind Precip. Elev Updated Type
                   

Watches & Warnings

There are currently no watches in effect.